sensor_id;sensor_type;location;lat;lon;timestamp;pressure;altitude;pressure_sealevel;temperature;humidity
63700;BME280;49845;47.130;142.766;2024-03-23T00:53:55;100867.66;;;5.12;60.31
63700;BME280;49845;47.130;142.766;2024-03-23T00:56:23;100872.22;;;5.27;60.29
63700;BME280;49845;47.130;142.766;2024-03-23T00:58:52;100875.03;;;5.44;59.99
63700;BME280;49845;47.130;142.766;2024-03-23T01:01:20;100870.84;;;5.54;59.44
63700;BME280;49845;47.130;142.766;2024-03-23T01:03:54;100877.16;;;5.73;59.74
63700;BME280;49845;47.130;142.766;2024-03-23T01:06:22;100873.63;;;5.68;59.19
63700;BME280;49845;47.130;142.766;2024-03-23T01:08:52;100864.09;;;5.65;59.88
63700;BME280;49845;47.130;142.766;2024-03-23T01:11:20;100869.41;;;5.76;60.15
63700;BME280;49845;47.130;142.766;2024-03-23T01:13:49;100870.34;;;5.81;59.63
63700;BME280;49845;47.130;142.766;2024-03-23T01:16:16;100875.53;;;5.81;59.75
63700;BME280;49845;47.130;142.766;2024-03-23T01:18:45;100863.41;;;5.77;59.65
63700;BME280;49845;47.130;142.766;2024-03-23T01:21:13;100867.84;;;5.87;59.61
63700;BME280;49845;47.130;142.766;2024-03-23T01:23:42;100858.50;;;5.98;59.93
63700;BME280;49845;47.130;142.766;2024-03-23T01:26:11;100858.56;;;6.04;59.30
63700;BME280;49845;47.130;142.766;2024-03-23T01:28:40;100856.03;;;6.09;59.18
63700;BME280;49845;47.130;142.766;2024-03-23T01:31:08;100855.31;;;6.24;59.34
63700;BME280;49845;47.130;142.766;2024-03-23T01:33:37;100859.75;;;6.33;59.04
63700;BME280;49845;47.130;142.766;2024-03-23T01:36:05;100858.78;;;6.23;58.55
63700;BME280;49845;47.130;142.766;2024-03-23T01:38:34;100850.09;;;6.19;59.10
63700;BME280;49845;47.130;142.766;2024-03-23T01:41:03;100850.97;;;6.21;59.04
63700;BME280;49845;47.130;142.766;2024-03-23T01:43:48;100816.09;;;5.95;58.99
63700;BME280;49845;47.130;142.766;2024-03-23T01:46:16;100858.66;;;6.14;59.06
63700;BME280;49845;47.130;142.766;2024-03-23T01:48:46;100845.72;;;6.15;58.83
63700;BME280;49845;47.130;142.766;2024-03-23T01:51:13;100843.16;;;6.17;59.20
63700;BME280;49845;47.130;142.766;2024-03-23T01:53:43;100846.72;;;6.28;59.07
63700;BME280;49845;47.130;142.766;2024-03-23T01:56:10;100845.91;;;6.32;58.93
63700;BME280;49845;47.130;142.766;2024-03-23T01:58:40;100846.72;;;6.28;58.35
63700;BME280;49845;47.130;142.766;2024-03-23T02:01:09;100846.72;;;6.28;58.40
63700;BME280;49845;47.130;142.766;2024-03-23T02:03:38;100839.88;;;6.36;58.82
63700;BME280;49845;47.130;142.766;2024-03-23T02:06:06;100845.13;;;6.42;58.39
63700;BME280;49845;47.130;142.766;2024-03-23T02:08:35;100833.09;;;6.51;58.27
63700;BME280;49845;47.130;142.766;2024-03-23T02:11:03;100841.00;;;6.63;58.10
63700;BME280;49845;47.130;142.766;2024-03-23T02:13:32;100815.91;;;6.65;57.95
63700;BME280;49845;47.130;142.766;2024-03-23T02:16:00;100835.03;;;6.73;57.73
63700;BME280;49845;47.130;142.766;2024-03-23T02:18:30;100835.91;;;6.75;58.00
63700;BME280;49845;47.130;142.766;2024-03-23T02:20:58;100829.94;;;6.88;57.44
63700;BME280;49845;47.130;142.766;2024-03-23T02:23:28;100829.94;;;6.88;56.96
63700;BME280;49845;47.130;142.766;2024-03-23T02:25:56;100810.75;;;6.71;56.23
63700;BME280;49845;47.130;142.766;2024-03-23T02:28:25;100819.44;;;6.73;56.97
63700;BME280;49845;47.130;142.766;2024-03-23T02:30:53;100812.56;;;6.81;57.02
63700;BME280;49845;47.130;142.766;2024-03-23T02:33:22;100823.03;;;6.87;56.50
63700;BME280;49845;47.130;142.766;2024-03-23T02:35:50;100815.28;;;6.92;56.37
63700;BME280;49845;47.130;142.766;2024-03-23T02:38:20;100824.75;;;6.88;55.93
63700;BME280;49845;47.130;142.766;2024-03-23T02:41:03;100804.84;;;6.90;56.04
63700;BME280;49845;47.130;142.766;2024-03-23T02:43:32;100811.88;;;7.04;55.85
63700;BME280;49845;47.130;142.766;2024-03-23T02:46:00;100801.47;;;7.02;55.40
63700;BME280;49845;47.130;142.766;2024-03-23T02:48:29;100803.28;;;7.12;55.39
63700;BME280;49845;47.130;142.766;2024-03-23T02:50:57;100807.69;;;7.27;55.43
63700;BME280;49845;47.130;142.766;2024-03-23T02:53:26;100800.81;;;7.35;55.36
63700;BME280;49845;47.130;142.766;2024-03-23T02:55:57;100802.56;;;7.37;55.28
63700;BME280;49845;47.130;142.766;2024-03-23T02:58:26;100801.72;;;7.44;54.75
63700;BME280;49845;47.130;142.766;2024-03-23T03:00:54;100797.38;;;7.41;54.88
63700;BME280;49845;47.130;142.766;2024-03-23T03:03:23;100795.66;;;7.45;54.84
63700;BME280;49845;47.130;142.766;2024-03-23T03:05:55;100792.19;;;7.46;54.43
63700;BME280;49845;47.130;142.766;2024-03-23T03:08:24;100787.88;;;7.45;54.10
63700;BME280;49845;47.130;142.766;2024-03-23T03:10:52;100784.38;;;7.40;54.09
63700;BME280;49845;47.130;142.766;2024-03-23T03:13:23;100780.00;;;7.32;54.63
63700;BME280;49845;47.130;142.766;2024-03-23T03:15:50;100782.59;;;7.29;55.09
63700;BME280;49845;47.130;142.766;2024-03-23T03:18:19;100784.31;;;7.33;54.70
63700;BME280;49845;47.130;142.766;2024-03-23T03:20:47;100780.00;;;7.32;54.93
63700;BME280;49845;47.130;142.766;2024-03-23T03:23:16;100779.13;;;7.33;54.75
63700;BME280;49845;47.130;142.766;2024-03-23T03:25:44;100778.28;;;7.34;54.85
63700;BME280;49845;47.130;142.766;2024-03-23T03:28:13;100748.72;;;7.17;54.37
63700;BME280;49845;47.130;142.766;2024-03-23T03:30:43;100770.47;;;7.34;54.99
63700;BME280;49845;47.130;142.766;2024-03-23T03:33:12;100769.59;;;7.35;54.93
63700;BME280;49845;47.130;142.766;2024-03-23T03:35:40;100754.00;;;7.26;54.74
63700;BME280;49845;47.130;142.766;2024-03-23T03:38:10;100757.47;;;7.34;55.49
63700;BME280;49845;47.130;142.766;2024-03-23T03:40:37;100756.66;;;7.43;55.77
63700;BME280;49845;47.130;142.766;2024-03-23T03:43:07;100752.34;;;7.50;55.15
63700;BME280;49845;47.130;142.766;2024-03-23T03:45:34;100750.59;;;7.46;55.42
63700;BME280;49845;47.130;142.766;2024-03-23T03:48:06;100738.47;;;7.45;55.32
63700;BME280;49845;47.130;142.766;2024-03-23T03:50:34;100743.66;;;7.45;55.41
63700;BME280;49845;47.130;142.766;2024-03-23T03:53:03;100738.47;;;7.45;55.62
63700;BME280;49845;47.130;142.766;2024-03-23T03:55:31;100733.25;;;7.48;56.02
63700;BME280;49845;47.130;142.766;2024-03-23T03:57:59;100734.16;;;7.47;55.99
63700;BME280;49845;47.130;142.766;2024-03-23T04:00:27;100734.97;;;7.40;55.78
63700;BME280;49845;47.130;142.766;2024-03-23T04:02:56;100737.53;;;7.29;56.52
63700;BME280;49845;47.130;142.766;2024-03-23T04:05:27;100724.53;;;7.33;56.31
63700;BME280;49845;47.130;142.766;2024-03-23T04:07:54;100728.84;;;7.25;56.49
63700;BME280;49845;47.130;142.766;2024-03-23T04:10:23;100717.56;;;7.20;56.49
63700;BME280;49845;47.130;142.766;2024-03-23T04:12:51;100725.34;;;7.19;56.65
63700;BME280;49845;47.130;142.766;2024-03-23T04:15:20;100724.47;;;7.18;57.38
63700;BME280;49845;47.130;142.766;2024-03-23T04:17:48;100723.66;;;7.30;56.84
63700;BME280;49845;47.130;142.766;2024-03-23T04:20:17;100724.53;;;7.30;57.60
63700;BME280;49845;47.130;142.766;2024-03-23T04:22:46;100725.41;;;7.35;56.89
63700;BME280;49845;47.130;142.766;2024-03-23T04:25:15;100722.00;;;7.44;57.18
63700;BME280;49845;47.130;142.766;2024-03-23T04:27:43;100689.00;;;7.31;57.07
63700;BME280;49845;47.130;142.766;2024-03-23T04:30:13;100715.91;;;7.44;56.74
63700;BME280;49845;47.130;142.766;2024-03-23T04:32:40;100708.97;;;7.40;56.58
63700;BME280;49845;47.130;142.766;2024-03-23T04:35:09;100716.75;;;7.41;56.72
63700;BME280;49845;47.130;142.766;2024-03-23T04:37:37;100715.88;;;7.34;56.86
63700;BME280;49845;47.130;142.766;2024-03-23T04:40:09;100702.84;;;7.25;57.21
63700;BME280;49845;47.130;142.766;2024-03-23T04:42:39;100712.41;;;7.35;57.41
63700;BME280;49845;47.130;142.766;2024-03-23T04:45:08;100714.19;;;7.40;57.19
63700;BME280;49845;47.130;142.766;2024-03-23T04:47:38;100706.34;;;7.35;56.92
63700;BME280;49845;47.130;142.766;2024-03-23T04:50:07;100704.59;;;7.26;56.12
63700;BME280;49845;47.130;142.766;2024-03-23T04:52:37;100706.31;;;7.27;56.91
63700;BME280;49845;47.130;142.766;2024-03-23T04:55:08;100690.69;;;7.18;56.27
63700;BME280;49845;47.130;142.766;2024-03-23T04:57:50;100707.22;;;7.29;56.98
63700;BME280;49845;47.130;142.766;2024-03-23T05:00:20;100710.69;;;7.38;57.37
63700;BME280;49845;47.130;142.766;2024-03-23T05:02:47;100700.28;;;7.31;56.75
63700;BME280;49845;47.130;142.766;2024-03-23T05:05:17;100706.34;;;7.29;56.56
63700;BME280;49845;47.130;142.766;2024-03-23T05:07:45;100707.16;;;7.23;56.62
63700;BME280;49845;47.130;142.766;2024-03-23T05:10:15;100713.25;;;7.25;57.12
63700;BME280;49845;47.130;142.766;2024-03-23T05:12:43;100701.97;;;7.25;56.83
63700;BME280;49845;47.130;142.766;2024-03-23T05:15:12;100698.53;;;7.24;57.09
63700;BME280;49845;47.130;142.766;2024-03-23T05:17:40;100701.97;;;7.23;56.67
63700;BME280;49845;47.130;142.766;2024-03-23T05:20:09;100696.75;;;7.20;57.11
63700;BME280;49845;47.130;142.766;2024-03-23T05:22:39;100696.72;;;7.11;56.86
63700;BME280;49845;47.130;142.766;2024-03-23T05:25:08;100701.94;;;7.14;56.58
63700;BME280;49845;47.130;142.766;2024-03-23T05:27:38;100705.31;;;7.01;56.94
63700;BME280;49845;47.130;142.766;2024-03-23T05:30:08;100692.28;;;6.87;56.93
63700;BME280;49845;47.130;142.766;2024-03-23T05:32:36;100705.25;;;6.88;56.57
63700;BME280;49845;47.130;142.766;2024-03-23T05:35:07;100707.00;;;6.86;56.73
63700;BME280;49845;47.130;142.766;2024-03-23T05:37:35;100712.31;;;7.06;58.19
63700;BME280;49845;47.130;142.766;2024-03-23T05:40:04;100712.34;;;7.20;58.62
63700;BME280;49845;47.130;142.766;2024-03-23T05:42:33;100709.84;;;7.37;57.53
63700;BME280;49845;47.130;142.766;2024-03-23T05:45:04;100714.19;;;7.46;58.19
63700;BME280;49845;47.130;142.766;2024-03-23T05:47:37;100709.84;;;7.43;56.55
63700;BME280;49845;47.130;142.766;2024-03-23T05:50:06;100708.97;;;7.37;57.19
63700;BME280;49845;47.130;142.766;2024-03-23T05:52:34;100708.97;;;7.37;57.82
63700;BME280;49845;47.130;142.766;2024-03-23T05:55:03;100707.19;;;7.26;56.48
63700;BME280;49845;47.130;142.766;2024-03-23T05:57:31;100695.88;;;7.17;56.85
63700;BME280;49845;47.130;142.766;2024-03-23T05:59:59;100695.88;;;7.17;56.93
63700;BME280;49845;47.130;142.766;2024-03-23T06:02:29;100699.34;;;7.14;56.60
63700;BME280;49845;47.130;142.766;2024-03-23T06:04:58;100698.47;;;7.12;57.41
63700;BME280;49845;47.130;142.766;2024-03-23T06:07:25;100691.56;;;7.20;57.47
63700;BME280;49845;47.130;142.766;2024-03-23T06:09:54;100696.69;;;7.08;56.58
63700;BME280;49845;47.130;142.766;2024-03-23T06:12:22;100698.41;;;7.03;57.27
63700;BME280;49845;47.130;142.766;2024-03-23T06:14:51;100594.19;;;6.41;57.35
63700;BME280;49845;47.130;142.766;2024-03-23T06:17:18;100688.91;;;7.02;58.08
63700;BME280;49845;47.130;142.766;2024-03-23T06:19:49;100686.34;;;7.14;57.86
63700;BME280;49845;47.130;142.766;2024-03-23T06:22:16;100698.47;;;7.18;58.09
63700;BME280;49845;47.130;142.766;2024-03-23T06:24:45;100700.22;;;7.19;58.22
63700;BME280;49845;47.130;142.766;2024-03-23T06:27:13;100693.25;;;7.09;57.59
63700;BME280;49845;47.130;142.766;2024-03-23T06:29:42;100696.66;;;6.99;57.97
63700;BME280;49845;47.130;142.766;2024-03-23T06:32:10;100693.22;;;7.00;58.65
63700;BME280;49845;47.130;142.766;2024-03-23T06:34:41;100691.50;;;7.05;59.31
63700;BME280;49845;47.130;142.766;2024-03-23T06:37:11;100705.31;;;6.95;58.30
63700;BME280;49845;47.130;142.766;2024-03-23T06:39:39;100701.75;;;6.83;58.51
63700;BME280;49845;47.130;142.766;2024-03-23T06:42:07;100707.75;;;6.73;58.42
63700;BME280;49845;47.130;142.766;2024-03-23T06:44:36;100699.03;;;6.63;58.13
63700;BME280;49845;47.130;142.766;2024-03-23T06:47:04;100698.25;;;6.75;59.63
63700;BME280;49845;47.130;142.766;2024-03-23T06:49:33;100693.88;;;6.71;59.53
63700;BME280;49845;47.130;142.766;2024-03-23T06:52:01;100703.53;;;6.90;61.76
63700;BME280;49845;47.130;142.766;2024-03-23T06:54:31;100703.59;;;7.03;60.13
63700;BME280;49845;47.130;142.766;2024-03-23T06:56:59;100695.84;;;7.04;60.23
63700;BME280;49845;47.130;142.766;2024-03-23T06:59:28;100700.25;;;7.22;60.52
63700;BME280;49845;47.130;142.766;2024-03-23T07:01:55;100705.38;;;7.10;59.41
63700;BME280;49845;47.130;142.766;2024-03-23T07:04:24;100709.78;;;7.22;59.67
63700;BME280;49845;47.130;142.766;2024-03-23T07:06:52;100711.44;;;7.13;59.21
63700;BME280;49845;47.130;142.766;2024-03-23T07:09:21;100701.94;;;7.19;59.91
63700;BME280;49845;47.130;142.766;2024-03-23T07:11:56;100705.50;;;7.31;59.95
63700;BME280;49845;47.130;142.766;2024-03-23T07:14:25;100703.69;;;7.18;58.46
63700;BME280;49845;47.130;142.766;2024-03-23T07:16:53;100713.22;;;7.19;58.63
63700;BME280;49845;47.130;142.766;2024-03-23T07:19:21;100546.97;;;5.68;57.25
63700;BME280;49845;47.130;142.766;2024-03-23T07:21:50;100717.06;;;6.43;57.83
63700;BME280;49845;47.130;142.766;2024-03-23T07:24:19;100725.59;;;6.27;57.68
63700;BME280;49845;47.130;142.766;2024-03-23T07:26:46;100712.44;;;6.05;58.54
63700;BME280;49845;47.130;142.766;2024-03-23T07:29:17;100717.47;;;5.92;59.03
63700;BME280;49845;47.130;142.766;2024-03-23T07:31:44;100716.50;;;5.82;58.83
63700;BME280;49845;47.130;142.766;2024-03-23T07:34:13;100720.69;;;5.71;58.92
63700;BME280;49845;47.130;142.766;2024-03-23T07:36:45;100721.38;;;5.54;59.43
63700;BME280;49845;47.130;142.766;2024-03-23T07:39:14;100728.16;;;5.43;59.40
63700;BME280;49845;47.130;142.766;2024-03-23T07:41:44;100721.06;;;5.27;59.71
63700;BME280;49845;47.130;142.766;2024-03-23T07:44:13;100727.75;;;5.09;59.16
63700;BME280;49845;47.130;142.766;2024-03-23T07:46:42;100726.66;;;4.93;59.29
63700;BME280;49845;47.130;142.766;2024-03-23T07:49:11;100733.31;;;4.76;59.21
63700;BME280;49845;47.130;142.766;2024-03-23T07:51:39;100732.25;;;4.63;59.61
63700;BME280;49845;47.130;142.766;2024-03-23T07:54:08;100742.41;;;4.51;58.86
63700;BME280;49845;47.130;142.766;2024-03-23T07:56:35;100736.13;;;4.37;60.19
63700;BME280;49845;47.130;142.766;2024-03-23T07:59:04;100738.59;;;4.27;60.29
63700;BME280;49845;47.130;142.766;2024-03-23T08:01:32;100746.97;;;4.14;60.25
63700;BME280;49845;47.130;142.766;2024-03-23T08:04:11;100748.53;;;4.06;60.76
63700;BME280;49845;47.130;142.766;2024-03-23T08:06:40;100745.00;;;4.01;61.04
63700;BME280;49845;47.130;142.766;2024-03-23T08:09:08;100756.03;;;3.91;61.54
63700;BME280;49845;47.130;142.766;2024-03-23T08:11:36;100742.16;;;3.85;62.09
63700;BME280;49845;47.130;142.766;2024-03-23T08:14:06;100749.72;;;3.76;62.44
63700;BME280;49845;47.130;142.766;2024-03-23T08:16:35;100759.81;;;3.64;62.24
63700;BME280;49845;47.130;142.766;2024-03-23T08:19:02;100756.03;;;3.46;62.77
63700;BME280;49845;47.130;142.766;2024-03-23T08:21:33;100754.91;;;3.34;63.32
63700;BME280;49845;47.130;142.766;2024-03-23T08:24:01;100753.00;;;3.25;64.06
63700;BME280;49845;47.130;142.766;2024-03-23T08:26:30;100752.75;;;3.14;64.61
63700;BME280;49845;47.130;142.766;2024-03-23T08:28:57;100763.84;;;3.09;65.20
63700;BME280;49845;47.130;142.766;2024-03-23T08:31:26;100761.97;;;3.01;66.37
63700;BME280;49845;47.130;142.766;2024-03-23T08:33:54;100763.44;;;2.90;66.62
63700;BME280;49845;47.130;142.766;2024-03-23T08:36:23;100772.16;;;2.95;67.42
63700;BME280;49845;47.130;142.766;2024-03-23T08:38:52;100775.72;;;3.00;68.25
63700;BME280;49845;47.130;142.766;2024-03-23T08:41:21;100775.38;;;2.85;67.79
63700;BME280;49845;47.130;142.766;2024-03-23T08:43:50;100780.19;;;2.70;68.34
63700;BME280;49845;47.130;142.766;2024-03-23T08:46:18;100764.41;;;2.57;69.09
63700;BME280;49845;47.130;142.766;2024-03-23T08:48:47;100785.78;;;2.53;69.21
63700;BME280;49845;47.130;142.766;2024-03-23T08:51:16;100784.00;;;2.51;70.00
63700;BME280;49845;47.130;142.766;2024-03-23T08:53:45;100770.47;;;2.25;69.91
63700;BME280;49845;47.130;142.766;2024-03-23T08:56:15;100795.28;;;2.21;69.87
63700;BME280;49845;47.130;142.766;2024-03-23T08:58:44;100792.84;;;2.26;71.18
63700;BME280;49845;47.130;142.766;2024-03-23T09:01:12;100795.47;;;2.27;70.84
63700;BME280;49845;47.130;142.766;2024-03-23T09:03:40;100793.88;;;2.34;71.31
63700;BME280;49845;47.130;142.766;2024-03-23T09:06:09;100792.91;;;2.29;70.53
63700;BME280;49845;47.130;142.766;2024-03-23T09:08:38;100788.47;;;2.23;70.86
63700;BME280;49845;47.130;142.766;2024-03-23T09:11:08;100797.72;;;2.15;70.96
63700;BME280;49845;47.130;142.766;2024-03-23T09:13:39;100800.97;;;2.08;70.76
63700;BME280;49845;47.130;142.766;2024-03-23T09:16:08;100804.16;;;1.99;70.85
63700;BME280;49845;47.130;142.766;2024-03-23T09:18:37;100795.19;;;1.85;70.57
63700;BME280;49845;47.130;142.766;2024-03-23T09:21:11;100806.81;;;1.70;71.38
63700;BME280;49845;47.130;142.766;2024-03-23T09:23:41;100802.81;;;1.50;71.22
63700;BME280;49845;47.130;142.766;2024-03-23T09:26:10;100799.03;;;1.39;71.70
63700;BME280;49845;47.130;142.766;2024-03-23T09:28:40;100805.66;;;1.31;72.18
63700;BME280;49845;47.130;142.766;2024-03-23T09:31:08;100666.66;;;0.45;72.49
63700;BME280;49845;47.130;142.766;2024-03-23T09:33:41;100802.16;;;1.28;73.63
63700;BME280;49845;47.130;142.766;2024-03-23T09:36:11;100800.31;;;1.24;73.33
63700;BME280;49845;47.130;142.766;2024-03-23T09:38:41;100805.69;;;1.03;72.99
63700;BME280;49845;47.130;142.766;2024-03-23T09:41:09;100812.25;;;0.94;73.28
63700;BME280;49845;47.130;142.766;2024-03-23T09:43:42;100802.66;;;0.90;74.01
63700;BME280;49845;47.130;142.766;2024-03-23T09:46:10;100811.69;;;0.77;74.33
63700;BME280;49845;47.130;142.766;2024-03-23T09:48:39;100804.59;;;0.70;74.22
63700;BME280;49845;47.130;142.766;2024-03-23T09:51:07;100811.28;;;0.63;74.20
63700;BME280;49845;47.130;142.766;2024-03-23T09:53:37;100801.78;;;0.62;74.86
63700;BME280;49845;47.130;142.766;2024-03-23T09:56:05;100797.41;;;0.58;75.31
63700;BME280;49845;47.130;142.766;2024-03-23T09:58:36;100809.41;;;0.59;75.12
63700;BME280;49845;47.130;142.766;2024-03-23T10:01:05;100804.97;;;0.55;74.90
63700;BME280;49845;47.130;142.766;2024-03-23T10:03:43;100804.88;;;0.52;75.02
63700;BME280;49845;47.130;142.766;2024-03-23T10:06:10;100816.81;;;0.50;75.21
63700;BME280;49845;47.130;142.766;2024-03-23T10:08:39;100815.19;;;0.52;75.18
63700;BME280;49845;47.130;142.766;2024-03-23T10:11:15;100809.06;;;0.48;75.83
63700;BME280;49845;47.130;142.766;2024-03-23T10:13:44;100806.53;;;0.50;75.90
63700;BME280;49845;47.130;142.766;2024-03-23T10:16:21;100799.91;;;0.56;75.97
63700;BME280;49845;47.130;142.766;2024-03-23T10:18:50;100793.69;;;0.50;75.94
63700;BME280;49845;47.130;142.766;2024-03-23T10:21:18;100796.25;;;0.50;75.97
63700;BME280;49845;47.130;142.766;2024-03-23T10:23:47;100795.97;;;0.40;75.89
63700;BME280;49845;47.130;142.766;2024-03-23T10:26:18;100789.56;;;0.29;76.40
63700;BME280;49845;47.130;142.766;2024-03-23T10:28:55;100784.63;;;0.10;76.54
63700;BME280;49845;47.130;142.766;2024-03-23T10:31:26;100788.59;;;0.00;76.24
63700;BME280;49845;47.130;142.766;2024-03-23T10:33:55;100788.81;;;-0.18;76.67
63700;BME280;49845;47.130;142.766;2024-03-23T10:36:24;100762.13;;;-0.46;77.40
63700;BME280;49845;47.130;142.766;2024-03-23T10:38:54;100789.88;;;-0.37;77.64
63700;BME280;49845;47.130;142.766;2024-03-23T10:41:22;100793.28;;;-0.36;78.23
63700;BME280;49845;47.130;142.766;2024-03-23T10:43:51;100793.28;;;-0.36;78.72
63700;BME280;49845;47.130;142.766;2024-03-23T10:46:19;100800.16;;;-0.35;78.98
63700;BME280;49845;47.130;142.766;2024-03-23T10:48:49;100800.41;;;-0.29;79.40
63700;BME280;49845;47.130;142.766;2024-03-23T10:51:17;100786.72;;;-0.28;79.09
63700;BME280;49845;47.130;142.766;2024-03-23T10:53:46;100802.25;;;-0.25;79.37
63700;BME280;49845;47.130;142.766;2024-03-23T10:56:16;100783.56;;;-0.21;79.28
63700;BME280;49845;47.130;142.766;2024-03-23T10:58:47;100785.44;;;-0.17;79.14
63700;BME280;49845;47.130;142.766;2024-03-23T11:01:16;100787.94;;;-0.18;78.64
63700;BME280;49845;47.130;142.766;2024-03-23T11:03:45;100787.16;;;-0.16;78.42
63700;BME280;49845;47.130;142.766;2024-03-23T11:06:36;100804.88;;;-0.24;78.01
63700;BME280;49845;47.130;142.766;2024-03-23T11:09:41;100794.94;;;-0.38;77.68
63700;BME280;49845;47.130;142.766;2024-03-23T11:12:30;100792.00;;;-0.48;78.40
63700;BME280;49845;47.130;142.766;2024-03-23T11:15:04;100792.75;;;-0.52;78.55
63700;BME280;49845;47.130;142.766;2024-03-23T11:17:32;100754.03;;;-0.80;79.04
63700;BME280;49845;47.130;142.766;2024-03-23T11:20:02;100751.72;;;-0.97;79.07
63700;BME280;49845;47.130;142.766;2024-03-23T11:22:42;100749.38;;;-1.13;79.14
63700;BME280;49845;47.130;142.766;2024-03-23T11:25:24;100791.75;;;-1.00;79.67
63700;BME280;49845;47.130;142.766;2024-03-23T11:27:54;100797.28;;;-1.12;80.15
63700;BME280;49845;47.130;142.766;2024-03-23T11:30:23;100758.53;;;-1.41;80.41
63700;BME280;49845;47.130;142.766;2024-03-23T11:32:55;100795.91;;;-1.25;80.78
63700;BME280;49845;47.130;142.766;2024-03-23T11:35:29;100801.56;;;-1.34;81.06
63700;BME280;49845;47.130;142.766;2024-03-23T11:38:08;100794.69;;;-1.35;81.55
63700;BME280;49845;47.130;142.766;2024-03-23T11:40:37;100788.31;;;-1.44;81.70
63700;BME280;49845;47.130;142.766;2024-03-23T11:43:08;100793.03;;;-1.33;81.98
63700;BME280;49845;47.130;142.766;2024-03-23T11:45:38;100782.03;;;-1.30;82.09
63700;BME280;49845;47.130;142.766;2024-03-23T11:48:08;100780.22;;;-1.33;81.64
63700;BME280;49845;47.130;142.766;2024-03-23T11:50:40;100799.81;;;-1.35;81.68
63700;BME280;49845;47.130;142.766;2024-03-23T11:53:17;100800.94;;;-1.49;81.55
63700;BME280;49845;47.130;142.766;2024-03-23T11:55:49;100787.63;;;-1.61;81.46
63700;BME280;49845;47.130;142.766;2024-03-23T11:58:18;100797.06;;;-1.60;81.59
63700;BME280;49845;47.130;142.766;2024-03-23T12:00:50;100795.25;;;-1.63;82.10
63700;BME280;49845;47.130;142.766;2024-03-23T12:03:20;100776.78;;;-1.75;81.70
63700;BME280;49845;47.130;142.766;2024-03-23T12:05:49;100796.69;;;-1.69;81.71
63700;BME280;49845;47.130;142.766;2024-03-23T12:08:22;100785.22;;;-1.78;81.68
63700;BME280;49845;47.130;142.766;2024-03-23T12:10:52;100791.28;;;-1.76;81.87
63700;BME280;49845;47.130;142.766;2024-03-23T12:13:21;100771.66;;;-1.96;81.82
63700;BME280;49845;47.130;142.766;2024-03-23T12:15:50;100783.91;;;-1.89;82.59
63700;BME280;49845;47.130;142.766;2024-03-23T12:18:23;100791.06;;;-1.82;83.31
63700;BME280;49845;47.130;142.766;2024-03-23T12:20:51;100793.06;;;-1.75;83.25
63700;BME280;49845;47.130;142.766;2024-03-23T12:23:22;100782.66;;;-1.78;82.88
63700;BME280;49845;47.130;142.766;2024-03-23T12:25:50;100777.31;;;-1.84;82.32
63700;BME280;49845;47.130;142.766;2024-03-23T12:28:18;100780.66;;;-1.85;82.52
63700;BME280;49845;47.130;142.766;2024-03-23T12:30:46;100781.00;;;-1.77;82.77
63700;BME280;49845;47.130;142.766;2024-03-23T12:33:15;100781.91;;;-1.75;82.68
63700;BME280;49845;47.130;142.766;2024-03-23T12:35:43;100781.78;;;-1.78;82.40
63700;BME280;49845;47.130;142.766;2024-03-23T12:38:11;100781.16;;;-1.73;82.30
63700;BME280;49845;47.130;142.766;2024-03-23T12:40:41;100778.59;;;-1.73;82.39
63700;BME280;49845;47.130;142.766;2024-03-23T12:43:09;100788.28;;;-1.65;82.37
63700;BME280;49845;47.130;142.766;2024-03-23T12:45:37;100786.81;;;-1.60;82.27
63700;BME280;49845;47.130;142.766;2024-03-23T12:48:07;100784.22;;;-1.60;82.25
63700;BME280;49845;47.130;142.766;2024-03-23T12:50:35;100786.00;;;-1.59;81.84
63700;BME280;49845;47.130;142.766;2024-03-23T12:53:04;100780.06;;;-1.58;82.00
63700;BME280;49845;47.130;142.766;2024-03-23T12:55:31;100781.81;;;-1.57;81.86
63700;BME280;49845;47.130;142.766;2024-03-23T12:58:02;100778.56;;;-1.53;82.00
63700;BME280;49845;47.130;142.766;2024-03-23T13:00:30;100786.63;;;-1.44;82.02
63700;BME280;49845;47.130;142.766;2024-03-23T13:03:00;100771.16;;;-1.45;82.23
63700;BME280;49845;47.130;142.766;2024-03-23T13:05:28;100779.44;;;-1.32;82.49
63700;BME280;49845;47.130;142.766;2024-03-23T13:07:57;100772.78;;;-1.26;82.58
63700;BME280;49845;47.130;142.766;2024-03-23T13:10:24;100767.88;;;-1.20;82.65
63700;BME280;49845;47.130;142.766;2024-03-23T13:12:53;100773.16;;;-1.17;82.04
63700;BME280;49845;47.130;142.766;2024-03-23T13:15:23;100764.75;;;-1.13;82.06
63700;BME280;49845;47.130;142.766;2024-03-23T13:17:51;100771.88;;;-1.06;82.21
63700;BME280;49845;47.130;142.766;2024-03-23T13:20:20;100772.13;;;-1.00;81.96
63700;BME280;49845;47.130;142.766;2024-03-23T13:22:49;100781.09;;;-0.89;81.99
63700;BME280;49845;47.130;142.766;2024-03-23T13:25:19;100774.56;;;-0.80;81.65
63700;BME280;49845;47.130;142.766;2024-03-23T13:27:47;100766.38;;;-0.70;81.76
63700;BME280;49845;47.130;142.766;2024-03-23T13:30:15;100764.75;;;-0.68;81.24
63700;BME280;49845;47.130;142.766;2024-03-23T13:32:52;100727.31;;;-0.85;81.63
63700;BME280;49845;47.130;142.766;2024-03-23T13:35:20;100764.34;;;-0.56;80.91
63700;BME280;49845;47.130;142.766;2024-03-23T13:37:49;100760.13;;;-0.54;81.05
63700;BME280;49845;47.130;142.766;2024-03-23T13:40:17;100760.41;;;-0.47;80.83
63700;BME280;49845;47.130;142.766;2024-03-23T13:42:46;100762.13;;;-0.46;80.88